Time;durP1;ratioP1;P1;durP2;ratioP2;P2;SDS_P1;SDS_P2;PMS_P1;PMS_P2;Temp;Humidity;BMP_temperature;BMP_pressure;BME280_temperature;BME280_humidity;BME280_pressure;Samples;Min_cycle;Max_cycle;Signal;HPM_P1;HPM_P2
2023/10/30 00:00:45;;;;;;;24.65;18.33;;;22.90;56.50;;;;;;5038833;28;20032;-63
2023/10/30 00:03:13;;;;;;;25.42;17.83;;;22.90;56.50;;;;;;5039755;28;20041;-63
2023/10/30 00:05:39;;;;;;;25.45;17.92;;;22.90;56.50;;;;;;5040065;28;20094;-63
2023/10/30 00:08:06;;;;;;;25.75;18.17;;;22.90;56.50;;;;;;5039608;28;20025;-64
2023/10/30 00:10:33;;;;;;;24.73;17.42;;;22.90;56.50;;;;;;5037570;28;20540;-63
2023/10/30 00:12:59;;;;;;;25.23;16.90;;;22.90;56.50;;;;;;5039036;28;20116;-62
2023/10/30 00:15:25;;;;;;;24.92;17.27;;;22.90;56.50;;;;;;5039033;28;20525;-63
2023/10/30 00:17:51;;;;;;;23.63;17.33;;;22.90;56.50;;;;;;5040805;28;20064;-64
2023/10/30 00:20:17;;;;;;;24.17;17.00;;;22.90;56.50;;;;;;5038753;28;20061;-64
2023/10/30 00:22:43;;;;;;;22.65;16.35;;;22.80;56.50;;;;;;5038853;28;20064;-64
2023/10/30 00:25:09;;;;;;;25.50;17.52;;;22.90;56.50;;;;;;5037254;28;20036;-64
2023/10/30 00:27:34;;;;;;;23.30;16.30;;;22.80;56.50;;;;;;5039222;28;20034;-64
2023/10/30 00:30:00;;;;;;;23.58;16.17;;;22.80;56.60;;;;;;5038690;28;20431;-64
2023/10/30 00:32:26;;;;;;;23.95;17.17;;;22.80;56.60;;;;;;5037444;28;20475;-64
2023/10/30 00:34:52;;;;;;;23.13;15.93;;;22.70;56.50;;;;;;5037470;28;20032;-64
2023/10/30 00:37:17;;;;;;;21.85;16.10;;;22.70;56.60;;;;;;5039754;28;20037;-64
2023/10/30 00:39:43;;;;;;;21.88;16.13;;;22.70;56.60;;;;;;5037697;28;20025;-64
2023/10/30 00:42:09;;;;;;;22.92;15.82;;;22.70;56.60;;;;;;5038184;28;20028;-64
2023/10/30 00:44:37;;;;;;;22.38;16.35;;;22.70;56.60;;;;;;5039094;28;20033;-64
2023/10/30 00:47:04;;;;;;;22.48;16.05;;;22.70;56.60;;;;;;5039889;28;20541;-64
2023/10/30 00:49:30;;;;;;;22.80;16.48;;;22.70;56.60;;;;;;5038697;28;20501;-64
2023/10/30 00:51:55;;;;;;;21.25;15.25;;;22.70;56.60;;;;;;5037842;28;20029;-64
2023/10/30 00:54:21;;;;;;;22.55;15.95;;;22.70;56.60;;;;;;5039510;28;20044;-64
2023/10/30 00:56:47;;;;;;;21.75;15.55;;;22.70;56.60;;;;;;5040162;28;20037;-65
2023/10/30 00:59:12;;;;;;;21.65;15.65;;;22.70;56.60;;;;;;5038480;28;20526;-64
2023/10/30 01:01:38;;;;;;;20.27;15.07;;;22.60;56.60;;;;;;5039400;28;20030;-64
2023/10/30 01:04:05;;;;;;;21.48;16.23;;;22.70;56.60;;;;;;5039114;28;20481;-64
2023/10/30 01:06:31;;;;;;;21.90;16.10;;;22.60;56.60;;;;;;5036031;28;20021;-64
2023/10/30 01:08:56;;;;;;;21.17;15.82;;;22.60;56.60;;;;;;5037691;28;20045;-64
2023/10/30 01:11:22;;;;;;;21.67;15.07;;;22.60;56.60;;;;;;5036891;28;20155;-64
2023/10/30 01:13:48;;;;;;;21.65;15.27;;;22.60;56.60;;;;;;5037698;28;20025;-64
2023/10/30 01:16:13;;;;;;;22.77;15.77;;;22.60;56.60;;;;;;5039985;28;20392;-64
2023/10/30 01:18:39;;;;;;;19.27;15.30;;;22.60;56.60;;;;;;5037196;28;20073;-64
2023/10/30 01:21:15;;;;;;;22.38;16.50;;;22.60;56.60;;;;;;5036826;28;20063;-64
2023/10/30 01:23:40;;;;;;;20.45;14.88;;;22.60;56.60;;;;;;5038013;28;20033;-64
2023/10/30 01:26:06;;;;;;;19.20;14.30;;;22.60;56.60;;;;;;5036631;28;20054;-64
2023/10/30 01:28:31;;;;;;;20.77;15.40;;;22.50;56.50;;;;;;5036754;28;20033;-64
2023/10/30 01:30:57;;;;;;;23.35;15.00;;;22.60;56.60;;;;;;5037969;28;20085;-64
2023/10/30 01:33:24;;;;;;;20.85;14.77;;;22.50;56.60;;;;;;5036756;28;20021;-64
2023/10/30 01:35:50;;;;;;;18.17;13.38;;;22.50;56.60;;;;;;5040090;28;20017;-64
2023/10/30 01:38:15;;;;;;;18.27;13.77;;;22.50;56.60;;;;;;5036836;28;20491;-64
2023/10/30 01:40:51;;;;;;;20.30;14.55;;;22.50;56.60;;;;;;5041241;28;20048;-64
2023/10/30 01:43:30;;;;;;;20.08;14.68;;;22.50;56.60;;;;;;5041576;28;20026;-64
2023/10/30 01:45:56;;;;;;;20.58;14.25;;;22.50;56.60;;;;;;5044563;28;20032;-64
2023/10/30 01:48:23;;;;;;;19.27;13.93;;;22.50;56.60;;;;;;5043215;28;20033;-62
2023/10/30 01:50:49;;;;;;;18.38;14.00;;;22.50;56.60;;;;;;5042840;28;20106;-62
2023/10/30 01:53:20;;;;;;;20.10;14.18;;;22.50;56.60;;;;;;5041232;28;20159;-63
2023/10/30 01:55:46;;;;;;;18.05;13.05;;;22.50;56.60;;;;;;5041602;28;20039;-63
2023/10/30 01:58:11;;;;;;;17.67;13.55;;;22.50;56.60;;;;;;5041762;28;20128;-63
2023/10/30 02:00:38;;;;;;;17.80;13.10;;;22.40;56.60;;;;;;5042019;28;20515;-62
2023/10/30 02:03:04;;;;;;;18.05;13.07;;;22.40;56.60;;;;;;5041638;28;20431;-63
2023/10/30 02:05:30;;;;;;;17.98;13.30;;;22.40;56.60;;;;;;5043507;28;20018;-63
2023/10/30 02:07:56;;;;;;;18.42;13.90;;;22.40;56.70;;;;;;5040968;28;20032;-63
2023/10/30 02:10:22;;;;;;;16.67;12.77;;;22.40;56.60;;;;;;5040816;28;20030;-63
2023/10/30 02:12:49;;;;;;;16.67;13.30;;;22.40;56.60;;;;;;5041707;28;20032;-63
2023/10/30 02:15:15;;;;;;;18.38;12.90;;;22.40;56.60;;;;;;5042609;28;20017;-64
2023/10/30 02:17:41;;;;;;;16.83;12.57;;;22.40;56.70;;;;;;5041710;28;20051;-63
2023/10/30 02:20:07;;;;;;;17.42;12.27;;;22.30;56.60;;;;;;5040832;28;20037;-64
2023/10/30 02:22:32;;;;;;;17.10;12.65;;;22.30;56.60;;;;;;5041289;28;20037;-63
2023/10/30 02:24:58;;;;;;;14.75;11.20;;;22.30;56.70;;;;;;5040434;28;20449;-63
2023/10/30 02:27:24;;;;;;;15.30;11.60;;;22.30;56.60;;;;;;5040878;28;20913;-63
2023/10/30 02:29:50;;;;;;;16.70;11.85;;;22.30;56.70;;;;;;5042621;28;20025;-63
2023/10/30 02:32:16;;;;;;;15.55;10.98;;;22.30;56.70;;;;;;5039957;28;20029;-62
2023/10/30 02:34:41;;;;;;;15.27;11.57;;;22.30;56.70;;;;;;5041557;28;20478;-62
2023/10/30 02:37:07;;;;;;;14.95;10.88;;;22.30;56.70;;;;;;5039729;28;20041;-64
2023/10/30 02:39:34;;;;;;;15.25;11.65;;;22.30;56.70;;;;;;5040500;28;20044;-65
2023/10/30 02:42:01;;;;;;;13.02;10.60;;;22.30;56.70;;;;;;5042415;28;20560;-65
2023/10/30 02:44:28;;;;;;;15.57;11.65;;;22.30;56.70;;;;;;5044186;28;20025;-65
2023/10/30 02:46:55;;;;;;;13.52;10.57;;;22.30;56.80;;;;;;5043339;28;20025;-65
2023/10/30 02:49:22;;;;;;;15.93;11.93;;;22.20;56.70;;;;;;5041025;28;20025;-65
2023/10/30 02:51:48;;;;;;;14.68;11.23;;;22.20;56.70;;;;;;5041683;28;20028;-65
2023/10/30 02:54:13;;;;;;;13.35;10.30;;;22.20;56.70;;;;;;5038856;28;20033;-65
2023/10/30 02:56:39;;;;;;;14.93;10.98;;;22.20;56.70;;;;;;5038326;28;20092;-65
2023/10/30 02:59:06;;;;;;;13.35;9.80;;;22.20;56.70;;;;;;5041547;28;20077;-64
2023/10/30 03:01:33;;;;;;;14.45;9.70;;;22.20;56.70;;;;;;5039895;28;20095;-65
2023/10/30 03:04:00;;;;;;;14.10;10.43;;;22.20;56.70;;;;;;5041642;28;20026;-64
2023/10/30 03:06:26;;;;;;;12.27;9.60;;;22.20;56.70;;;;;;5040385;28;20025;-64
2023/10/30 03:08:52;;;;;;;12.32;9.52;;;22.20;56.80;;;;;;5039854;28;20029;-64
2023/10/30 03:11:18;;;;;;;12.60;9.75;;;22.20;56.80;;;;;;5038945;28;20461;-64
2023/10/30 03:13:44;;;;;;;11.27;9.05;;;22.10;56.70;;;;;;5040378;28;20086;-64
2023/10/30 03:16:09;;;;;;;13.48;9.60;;;22.10;56.70;;;;;;5040036;28;20104;-64
2023/10/30 03:18:35;;;;;;;12.20;9.63;;;22.10;56.80;;;;;;5040892;28;20044;-65
2023/10/30 03:21:00;;;;;;;14.65;9.90;;;22.10;56.70;;;;;;5039671;28;20036;-64
2023/10/30 03:23:26;;;;;;;12.23;9.38;;;22.10;56.80;;;;;;5040814;28;20029;-64
2023/10/30 03:25:52;;;;;;;11.70;8.95;;;22.10;56.80;;;;;;5038665;28;20032;-64
2023/10/30 03:28:18;;;;;;;12.05;8.65;;;22.10;56.80;;;;;;5041277;28;20026;-64
2023/10/30 03:30:44;;;;;;;11.30;8.48;;;22.10;56.80;;;;;;5040688;28;20028;-64
2023/10/30 03:33:09;;;;;;;11.82;9.00;;;22.10;56.80;;;;;;5041203;28;20112;-64
2023/10/30 03:35:39;;;;;;;11.35;8.90;;;22.10;56.80;;;;;;5040183;28;20865;-64
2023/10/30 03:38:05;;;;;;;11.40;8.60;;;22.10;56.80;;;;;;5038855;28;20307;-64
2023/10/30 03:40:31;;;;;;;10.90;8.85;;;22.10;56.80;;;;;;5038313;28;20095;-64
2023/10/30 03:42:56;;;;;;;11.55;8.80;;;22.10;56.80;;;;;;5040599;28;20533;-64
2023/10/30 03:45:22;;;;;;;10.23;8.15;;;22.10;56.80;;;;;;5039623;28;20104;-64
2023/10/30 03:47:48;;;;;;;10.88;8.48;;;22.10;56.80;;;;;;5039221;28;20021;-65
2023/10/30 03:50:14;;;;;;;11.75;8.85;;;22.10;56.80;;;;;;5039652;28;20381;-65
2023/10/30 03:52:40;;;;;;;10.77;8.55;;;22.10;56.80;;;;;;5040923;28;20721;-65
2023/10/30 03:55:06;;;;;;;11.52;8.43;;;22.10;56.80;;;;;;5039615;28;20029;-65
2023/10/30 03:57:32;;;;;;;10.75;8.40;;;22.00;56.80;;;;;;5038735;28;20564;-65
2023/10/30 03:59:58;;;;;;;10.18;7.80;;;22.00;56.80;;;;;;5039682;28;20033;-64
2023/10/30 04:02:24;;;;;;;10.63;8.18;;;22.00;56.70;;;;;;5039381;28;20428;-65
2023/10/30 04:04:49;;;;;;;10.75;7.75;;;22.00;56.80;;;;;;5039379;28;20032;-65
2023/10/30 04:07:16;;;;;;;10.57;7.80;;;22.00;56.80;;;;;;5039240;28;20071;-64
2023/10/30 04:09:42;;;;;;;9.52;7.40;;;22.00;56.80;;;;;;5038817;28;20068;-63
2023/10/30 04:12:07;;;;;;;10.13;7.72;;;22.00;56.80;;;;;;5039332;28;20072;-63
2023/10/30 04:14:33;;;;;;;10.45;7.90;;;22.00;56.80;;;;;;5039461;28;20493;-63
2023/10/30 04:17:02;;;;;;;9.35;7.50;;;22.00;56.80;;;;;;5039303;28;20079;-63
2023/10/30 04:19:28;;;;;;;;;;;22.00;56.80;;;;;;5040922;28;20443;-63
2023/10/30 04:21:53;;;;;;;10.10;7.53;;;22.00;56.80;;;;;;5038743;28;20011;-64
2023/10/30 04:24:19;;;;;;;9.52;7.10;;;22.00;57.30;;;;;;5037454;28;20025;-63
2023/10/30 04:26:45;;;;;;;10.00;7.75;;;22.00;56.80;;;;;;5039267;28;20029;-63
2023/10/30 04:29:13;;;;;;;10.52;8.40;;;21.90;56.80;;;;;;5038146;28;20022;-64
2023/10/30 04:31:39;;;;;;;9.50;7.45;;;21.90;56.80;;;;;;5037248;28;20489;-64
2023/10/30 04:34:05;;;;;;;9.52;7.30;;;21.90;56.80;;;;;;5038310;28;20032;-64
2023/10/30 04:36:30;;;;;;;9.85;7.03;;;21.90;56.80;;;;;;5046462;28;20079;-63
2023/10/30 04:38:56;;;;;;;9.82;7.80;;;21.90;56.80;;;;;;5036339;28;20037;-63
2023/10/30 04:41:22;;;;;;;8.90;6.90;;;21.90;56.80;;;;;;5037193;28;20036;-63
2023/10/30 04:43:47;;;;;;;8.85;7.00;;;21.90;56.80;;;;;;5038085;28;20049;-63
2023/10/30 04:46:13;;;;;;;9.50;7.30;;;21.90;56.80;;;;;;5038763;28;20411;-63
2023/10/30 04:48:38;;;;;;;9.13;7.18;;;21.90;56.80;;;;;;5039371;28;20033;-64
2023/10/30 04:51:04;;;;;;;9.77;7.50;;;21.90;56.80;;;;;;5038892;28;20029;-64
2023/10/30 04:53:30;;;;;;;8.90;6.88;;;21.90;56.90;;;;;;5037347;28;20151;-64
2023/10/30 04:56:00;;;;;;;8.75;7.10;;;21.90;56.90;;;;;;5035787;28;20024;-63
2023/10/30 04:58:25;;;;;;;8.90;7.03;;;21.90;56.90;;;;;;5039194;28;20091;-65
2023/10/30 05:00:51;;;;;;;9.27;7.22;;;21.90;56.90;;;;;;5038730;28;20036;-65
2023/10/30 05:03:16;;;;;;;9.00;6.80;;;21.80;56.80;;;;;;5039663;28;20489;-65
2023/10/30 05:05:42;;;;;;;9.35;6.82;;;21.80;56.90;;;;;;5038485;28;20606;-65
2023/10/30 05:08:08;;;;;;;8.70;6.78;;;21.90;56.90;;;;;;5037469;28;20033;-65
2023/10/30 05:10:33;;;;;;;9.68;7.22;;;21.80;56.80;;;;;;5038673;28;20559;-65
2023/10/30 05:12:59;;;;;;;8.20;6.63;;;21.80;56.90;;;;;;5037834;28;20118;-65
2023/10/30 05:15:24;;;;;;;9.25;6.75;;;21.80;56.90;;;;;;5036790;28;20025;-64
2023/10/30 05:17:50;;;;;;;9.20;6.85;;;21.80;56.80;;;;;;5038321;28;20051;-63
2023/10/30 05:20:16;;;;;;;8.60;6.90;;;21.80;56.90;;;;;;5036349;28;20130;-62
2023/10/30 05:22:44;;;;;;;9.00;7.18;;;21.80;56.90;;;;;;5038570;28;20054;-63
2023/10/30 05:25:10;;;;;;;7.83;6.67;;;21.80;56.90;;;;;;5037068;28;20103;-62
2023/10/30 05:27:35;;;;;;;8.65;6.50;;;21.80;56.90;;;;;;5036666;28;20434;-64
2023/10/30 05:30:02;;;;;;;7.05;5.80;;;21.80;56.90;;;;;;5038341;28;20474;-62
2023/10/30 05:32:28;;;;;;;8.77;6.82;;;21.80;56.90;;;;;;5036882;28;20013;-63
2023/10/30 05:34:54;;;;;;;8.13;6.18;;;21.80;56.90;;;;;;5023523;28;20505;-63
2023/10/30 05:37:19;;;;;;;8.18;6.32;;;21.80;56.90;;;;;;5038073;28;20187;-63
2023/10/30 05:39:45;;;;;;;7.53;6.10;;;21.80;56.90;;;;;;5038775;28;20038;-62
2023/10/30 05:42:11;;;;;;;8.30;6.30;;;21.80;56.90;;;;;;5036786;28;20044;-63
2023/10/30 05:44:37;;;;;;;7.85;6.00;;;21.80;57.00;;;;;;5037108;28;20432;-65
2023/10/30 05:47:02;;;;;;;8.40;6.30;;;21.70;56.90;;;;;;5036859;28;20036;-64
2023/10/30 05:49:28;;;;;;;8.05;6.35;;;21.70;56.90;;;;;;5036964;28;20028;-64
2023/10/30 05:51:55;;;;;;;8.25;6.30;;;21.80;57.00;;;;;;5037092;28;20076;-64
2023/10/30 05:54:21;;;;;;;8.05;5.95;;;21.80;56.90;;;;;;5037213;28;20033;-64
2023/10/30 05:56:47;;;;;;;7.75;5.43;;;21.70;56.90;;;;;;5037996;28;20027;-64
2023/10/30 05:59:12;;;;;;;7.40;5.43;;;21.70;56.90;;;;;;5038940;28;20029;-64
2023/10/30 06:01:38;;;;;;;6.95;5.43;;;21.70;56.90;;;;;;5038749;28;20053;-65
2023/10/30 06:04:04;;;;;;;6.43;5.30;;;21.70;56.90;;;;;;5037576;28;20055;-64
2023/10/30 06:06:30;;;;;;;7.28;5.68;;;21.70;56.90;;;;;;5036405;28;20029;-63
2023/10/30 06:08:56;;;;;;;7.70;5.70;;;21.70;56.90;;;;;;5039498;28;20028;-67
2023/10/30 06:11:22;;;;;;;7.47;5.63;;;21.70;57.00;;;;;;5036820;28;20049;-66
2023/10/30 06:13:47;;;;;;;7.22;5.60;;;21.70;56.90;;;;;;5036373;28;20026;-67
2023/10/30 06:16:15;;;;;;;7.47;5.43;;;21.70;57.00;;;;;;5036269;28;20036;-67
2023/10/30 06:18:41;;;;;;;8.00;5.68;;;21.70;56.90;;;;;;5037173;28;20029;-67
2023/10/30 06:21:07;;;;;;;7.75;5.80;;;21.70;57.00;;;;;;5036752;28;20098;-67
2023/10/30 06:23:34;;;;;;;7.55;5.22;;;21.70;57.00;;;;;;5037033;28;20895;-67
2023/10/30 06:25:59;;;;;;;7.20;5.60;;;21.70;57.50;;;;;;5040142;28;20032;-67
2023/10/30 06:28:25;;;;;;;8.48;5.22;;;21.70;57.00;;;;;;5041365;28;20129;-65
2023/10/30 06:30:51;;;;;;;6.80;4.80;;;21.70;57.00;;;;;;5039949;28;20581;-65
2023/10/30 06:33:16;;;;;;;7.97;5.60;;;21.70;57.00;;;;;;5044206;28;20501;-64
2023/10/30 06:35:42;;;;;;;6.35;4.95;;;21.70;57.00;;;;;;5042025;28;20028;-64
2023/10/30 06:38:07;;;;;;;6.07;4.70;;;21.70;57.00;;;;;;5040390;28;20033;-64
2023/10/30 06:40:33;;;;;;;6.68;5.22;;;21.60;57.00;;;;;;5041141;28;20496;-64
2023/10/30 06:42:58;;;;;;;7.55;5.20;;;21.70;57.00;;;;;;5039003;28;20053;-64
2023/10/30 06:45:24;;;;;;;6.70;5.10;;;21.70;57.00;;;;;;5041680;28;20547;-64
2023/10/30 06:47:50;;;;;;;6.85;4.88;;;21.70;57.00;;;;;;5040387;28;20492;-65
2023/10/30 06:50:15;;;;;;;7.00;4.82;;;21.60;57.00;;;;;;5041733;28;20088;-64
2023/10/30 06:52:41;;;;;;;6.20;4.53;;;21.60;57.00;;;;;;5040188;28;20482;-64
2023/10/30 06:55:07;;;;;;;6.03;4.47;;;21.60;57.00;;;;;;5039583;28;20412;-63
2023/10/30 06:57:33;;;;;;;6.70;4.80;;;21.60;57.00;;;;;;5039821;28;20420;-64
2023/10/30 06:59:58;;;;;;;6.85;4.68;;;21.60;57.00;;;;;;5041822;28;20135;-64
2023/10/30 07:02:24;;;;;;;5.95;4.32;;;21.60;57.00;;;;;;5039255;28;20033;-64
2023/10/30 07:04:50;;;;;;;5.47;4.15;;;21.60;57.00;;;;;;5040730;28;20030;-64
2023/10/30 07:07:15;;;;;;;6.30;4.47;;;21.60;57.00;;;;;;5040237;28;20037;-64
2023/10/30 07:09:41;;;;;;;5.80;4.15;;;21.60;57.00;;;;;;5040580;28;20025;-64
2023/10/30 07:12:07;;;;;;;5.70;4.22;;;21.60;57.00;;;;;;5042147;28;20111;-64
2023/10/30 07:14:33;;;;;;;5.78;4.38;;;21.60;57.00;;;;;;5042549;28;20389;-63
2023/10/30 07:16:59;;;;;;;5.88;4.13;;;21.60;57.00;;;;;;5039446;28;20032;-64
2023/10/30 07:19:24;;;;;;;5.40;4.28;;;21.60;57.00;;;;;;5039505;28;20389;-64
2023/10/30 07:21:51;;;;;;;5.30;4.13;;;21.60;57.00;;;;;;5040211;28;20115;-64
2023/10/30 07:24:16;;;;;;;6.43;4.30;;;21.60;57.00;;;;;;5039533;28;20490;-64
2023/10/30 07:26:43;;;;;;;6.28;4.40;;;21.60;57.00;;;;;;5039404;28;20037;-64
2023/10/30 07:29:08;;;;;;;5.72;3.90;;;21.60;57.00;;;;;;5040569;28;20034;-64
2023/10/30 07:31:34;;;;;;;5.85;4.45;;;21.60;57.00;;;;;;5042488;28;20036;-64
2023/10/30 07:34:00;;;;;;;4.85;4.00;;;21.60;57.00;;;;;;5040305;28;20032;-64
2023/10/30 07:36:26;;;;;;;5.43;3.80;;;21.60;57.00;;;;;;5037482;28;20023;-65
2023/10/30 07:38:52;;;;;;;5.22;3.80;;;21.50;57.00;;;;;;5039411;28;20037;-64
2023/10/30 07:41:17;;;;;;;4.72;3.72;;;21.60;57.00;;;;;;5039122;28;20488;-64
2023/10/30 07:43:43;;;;;;;5.47;3.67;;;21.60;57.10;;;;;;5038008;28;20032;-65
2023/10/30 07:46:12;;;;;;;5.68;4.03;;;21.60;57.00;;;;;;5039054;28;20061;-65
2023/10/30 07:48:38;;;;;;;5.22;3.90;;;21.50;57.00;;;;;;5038411;28;20095;-64
2023/10/30 07:51:04;;;;;;;5.50;4.03;;;21.50;57.00;;;;;;5038995;28;20029;-64
2023/10/30 07:53:30;;;;;;;5.15;3.90;;;21.50;57.00;;;;;;5038763;28;20060;-64
2023/10/30 07:55:56;;;;;;;4.95;3.50;;;21.50;57.00;;;;;;5039382;28;20048;-65
2023/10/30 07:58:22;;;;;;;5.30;4.10;;;21.50;57.00;;;;;;5037149;28;20040;-64
2023/10/30 08:00:48;;;;;;;4.93;3.50;;;21.50;57.00;;;;;;5040078;28;20504;-64
2023/10/30 08:03:14;;;;;;;4.78;3.60;;;21.50;57.00;;;;;;5040182;28;20453;-64
2023/10/30 08:05:41;;;;;;;5.53;3.88;;;21.50;57.00;;;;;;5039153;28;20476;-65
2023/10/30 08:08:06;;;;;;;5.18;3.65;;;21.50;57.50;;;;;;5038917;28;20025;-65
2023/10/30 08:10:32;;;;;;;5.00;3.70;;;21.50;57.00;;;;;;5040194;28;20029;-64
2023/10/30 08:12:58;;;;;;;5.30;3.40;;;21.50;57.00;;;;;;5037487;28;20029;-64
2023/10/30 08:15:24;;;;;;;4.88;3.40;;;21.50;57.10;;;;;;5037498;28;20029;-64
2023/10/30 08:17:50;;;;;;;5.13;3.60;;;21.50;57.00;;;;;;5039290;28;20473;-64
2023/10/30 08:20:15;;;;;;;4.80;3.60;;;21.50;57.10;;;;;;5038782;28;20036;-64
2023/10/30 08:22:41;;;;;;;3.97;3.05;;;21.50;57.10;;;;;;5037041;28;20116;-63
2023/10/30 08:25:07;;;;;;;4.53;3.15;;;21.50;57.10;;;;;;5038837;28;20094;-64
2023/10/30 08:27:33;;;;;;;4.85;3.53;;;21.50;57.10;;;;;;5038743;28;20056;-64
2023/10/30 08:29:59;;;;;;;4.55;3.22;;;21.50;57.10;;;;;;5039305;28;20469;-64
2023/10/30 08:32:25;;;;;;;3.85;2.95;;;21.50;57.00;;;;;;5038313;28;20025;-65
2023/10/30 08:34:51;;;;;;;4.70;3.15;;;21.50;57.10;;;;;;5038342;28;20496;-64
2023/10/30 08:37:16;;;;;;;4.43;3.05;;;21.50;57.10;;;;;;5038373;28;20199;-64
2023/10/30 08:39:42;;;;;;;4.00;2.97;;;21.50;57.10;;;;;;5039345;28;20131;-64
2023/10/30 08:42:08;;;;;;;4.40;3.10;;;21.40;57.00;;;;;;5038317;28;20124;-64
2023/10/30 08:44:33;;;;;;;4.18;3.03;;;21.50;57.10;;;;;;5038913;28;20053;-65
2023/10/30 08:46:59;;;;;;;3.60;2.90;;;21.50;57.10;;;;;;5037246;28;20025;-65
2023/10/30 08:49:25;;;;;;;3.90;2.75;;;21.50;57.70;;;;;;5038180;28;20032;-65
2023/10/30 08:51:51;;;;;;;4.35;3.03;;;21.50;57.10;;;;;;5037498;28;20075;-64
2023/10/30 08:54:16;;;;;;;4.40;3.08;;;21.50;57.10;;;;;;5036442;28;20043;-65
2023/10/30 08:56:43;;;;;;;3.70;2.90;;;21.50;57.20;;;;;;5036153;28;20036;-65
2023/10/30 08:59:09;;;;;;;3.75;2.55;;;21.40;57.20;;;;;;5037315;28;20021;-65
2023/10/30 09:01:35;;;;;;;4.32;2.53;;;21.50;57.30;;;;;;5037973;28;20040;-65
2023/10/30 09:04:00;;;;;;;4.03;2.70;;;21.40;57.30;;;;;;5037468;28;20128;-64
2023/10/30 09:06:29;;;;;;;3.90;2.55;;;21.40;57.60;;;;;;5037111;28;20029;-64
2023/10/30 09:08:54;;;;;;;3.50;2.60;;;21.50;57.60;;;;;;5038840;28;20822;-64
2023/10/30 09:11:21;;;;;;;4.70;2.42;;;21.50;57.60;;;;;;5039839;28;20029;-65
2023/10/30 09:13:47;;;;;;;3.75;2.50;;;21.50;57.50;;;;;;5035936;28;20025;-65
2023/10/30 09:16:13;;;;;;;3.33;2.50;;;21.40;57.40;;;;;;5038642;28;20362;-64
2023/10/30 09:18:38;;;;;;;4.13;3.05;;;21.50;57.50;;;;;;5038193;28;20029;-64
2023/10/30 09:21:04;;;;;;;3.92;2.50;;;21.40;57.40;;;;;;5039369;28;20025;-64
2023/10/30 09:23:30;;;;;;;3.75;2.55;;;21.50;57.40;;;;;;5038724;28;20020;-65
2023/10/30 09:25:56;;;;;;;3.78;2.78;;;21.40;57.40;;;;;;5038481;28;20439;-64
2023/10/30 09:28:21;;;;;;;4.28;2.60;;;21.40;57.30;;;;;;5037821;28;20516;-65
2023/10/30 09:30:47;;;;;;;3.83;2.50;;;21.50;57.80;;;;;;5037077;28;20029;-65
2023/10/30 09:33:13;;;;;;;3.80;2.53;;;21.50;57.30;;;;;;5037202;28;20025;-65
2023/10/30 09:35:38;;;;;;;3.65;2.75;;;21.50;57.30;;;;;;5038332;28;20083;-65
2023/10/30 09:38:04;;;;;;;3.95;2.53;;;21.50;57.30;;;;;;5038570;28;20021;-65
2023/10/30 09:40:30;;;;;;;4.07;2.65;;;21.50;57.20;;;;;;5039189;28;20441;-65
2023/10/30 09:42:56;;;;;;;4.25;2.60;;;21.50;57.20;;;;;;5036981;28;20033;-65
2023/10/30 09:45:27;;;;;;;4.85;2.60;;;21.50;57.00;;;;;;5040696;28;20037;-65
2023/10/30 09:47:54;;;;;;;3.78;2.47;;;21.60;57.00;;;;;;5038371;28;20040;-65
2023/10/30 09:50:21;;;;;;;3.63;2.58;;;21.50;56.90;;;;;;5037955;28;20031;-64
2023/10/30 09:52:50;;;;;;;3.50;2.60;;;21.60;56.90;;;;;;5037996;28;20021;-66
2023/10/30 09:55:21;;;;;;;3.38;2.30;;;21.60;56.90;;;;;;5043009;28;20502;-64
2023/10/30 09:57:48;;;;;;;3.53;2.33;;;21.60;56.80;;;;;;5046302;28;21000;-66
2023/10/30 10:00:15;;;;;;;3.42;2.38;;;21.60;56.70;;;;;;5046254;28;20048;-64
2023/10/30 10:02:41;;;;;;;4.10;2.40;;;21.60;56.70;;;;;;5050401;28;20112;-64
2023/10/30 10:05:09;;;;;;;4.00;2.40;;;21.70;56.70;;;;;;5052273;28;20108;-64
2023/10/30 10:07:35;;;;;;;3.22;2.25;;;21.70;56.60;;;;;;5047478;28;20095;-65
2023/10/30 10:10:02;;;;;;;3.22;2.10;;;21.70;56.50;;;;;;5051899;28;20038;-65
2023/10/30 10:12:33;;;;;;;3.70;2.10;;;21.70;56.50;;;;;;5053193;28;20064;-64
2023/10/30 10:15:00;;;;;;;3.58;2.30;;;21.80;56.50;;;;;;5046354;28;20033;-65
2023/10/30 10:17:25;;;;;;;3.20;2.15;;;21.80;56.40;;;;;;5045359;28;20029;-66
2023/10/30 10:19:51;;;;;;;3.00;2.03;;;21.80;56.40;;;;;;5052378;28;20097;-65
2023/10/30 10:22:30;;;;;;;4.35;2.25;;;21.80;56.30;;;;;;5049332;28;20056;-66
2023/10/30 10:24:57;;;;;;;4.72;2.38;;;21.90;56.30;;;;;;5049058;28;20047;-65
2023/10/30 10:27:26;;;;;;;3.22;1.90;;;21.90;56.20;;;;;;5044769;28;20493;-64
2023/10/30 10:29:58;;;;;;;3.67;2.00;;;22.00;56.20;;;;;;5039712;28;20140;-65
2023/10/30 10:32:27;;;;;;;3.17;1.88;;;22.00;56.20;;;;;;5049835;28;20022;-66
2023/10/30 10:35:05;;;;;;;3.67;2.05;;;22.00;56.10;;;;;;5047910;28;20029;-65
2023/10/30 10:37:32;;;;;;;3.70;2.10;;;22.00;56.10;;;;;;5043062;28;20018;-65
2023/10/30 10:39:59;;;;;;;3.10;1.98;;;22.00;56.00;;;;;;5040353;28;20112;-65
2023/10/30 10:42:26;;;;;;;3.28;2.20;;;22.10;56.00;;;;;;5039418;28;20021;-67
2023/10/30 10:44:53;;;;;;;2.72;1.90;;;22.10;56.00;;;;;;5037581;28;20079;-67
2023/10/30 10:47:20;;;;;;;3.92;2.20;;;22.10;55.90;;;;;;5041430;28;20109;-67
2023/10/30 10:49:46;;;;;;;2.97;1.52;;;22.20;55.90;;;;;;5041234;28;20055;-65
2023/10/30 10:52:14;;;;;;;3.03;1.83;;;22.20;56.00;;;;;;5039996;28;20029;-65
2023/10/30 10:54:53;;;;;;;3.50;1.80;;;22.10;55.90;;;;;;5041798;28;20477;-65
2023/10/30 10:57:21;;;;;;;3.67;2.10;;;22.20;55.90;;;;;;5040205;28;20021;-65
2023/10/30 10:59:53;;;;;;;3.42;1.90;;;22.20;55.80;;;;;;5039398;28;20044;-65
2023/10/30 11:02:28;;;;;;;3.35;1.92;;;22.20;55.80;;;;;;5039813;28;20452;-65
2023/10/30 11:04:55;;;;;;;2.70;1.83;;;22.20;55.80;;;;;;5040502;28;20484;-65
2023/10/30 11:07:44;;;;;;;4.00;2.05;;;22.20;55.80;;;;;;5041290;28;20033;-66
2023/10/30 11:10:17;;;;;;;2.97;1.90;;;22.20;55.80;;;;;;5042225;28;20025;-66
2023/10/30 11:12:55;;;;;;;3.08;1.73;;;22.20;55.70;;;;;;5039050;28;20083;-67
2023/10/30 11:15:30;;;;;;;3.60;1.80;;;22.30;55.80;;;;;;5048630;28;20085;-67
2023/10/30 11:18:13;;;;;;;3.70;1.70;;;22.30;55.80;;;;;;5052102;28;20490;-67
2023/10/30 11:20:42;;;;;;;2.75;1.73;;;22.30;55.60;;;;;;5044479;28;20036;-67
2023/10/30 11:23:08;;;;;;;2.30;1.50;;;22.30;55.60;;;;;;5047786;28;20029;-66
2023/10/30 11:25:38;;;;;;;4.15;1.92;;;22.40;55.50;;;;;;5046787;28;20037;-67
2023/10/30 11:28:04;;;;;;;2.97;1.73;;;22.40;55.50;;;;;;5042564;28;20057;-66
2023/10/30 11:30:48;;;;;;;2.70;1.70;;;22.40;55.50;;;;;;5053036;28;20025;-67
2023/10/30 11:33:21;;;;;;;2.92;1.80;;;22.50;55.50;;;;;;5048906;28;20035;-67
2023/10/30 11:35:51;;;;;;;3.60;2.05;;;22.50;55.40;;;;;;5045879;28;20028;-67
2023/10/30 11:38:18;;;;;;;4.22;1.70;;;22.50;55.50;;;;;;5045250;28;20029;-67
2023/10/30 11:41:00;;;;;;;2.83;1.52;;;22.50;55.40;;;;;;5050055;28;20047;-67
2023/10/30 11:43:33;;;;;;;2.97;1.60;;;22.50;55.80;;;;;;5047293;28;20434;-66
2023/10/30 11:46:02;;;;;;;4.05;1.70;;;22.50;55.30;;;;;;5047359;28;20025;-66
2023/10/30 11:48:29;;;;;;;;;;;22.60;55.30;;;;;;5048404;28;20432;-67
2023/10/30 11:50:57;;;;;;;3.28;1.88;;;22.60;55.30;;;;;;5038744;28;20271;-66
2023/10/30 11:53:25;;;;;;;2.70;1.70;;;22.60;55.20;;;;;;5039613;28;20444;-66
2023/10/30 11:55:51;;;;;;;2.60;1.52;;;22.60;55.20;;;;;;5039939;28;20036;-66
2023/10/30 11:58:19;;;;;;;3.00;1.90;;;22.60;55.20;;;;;;5038617;28;20047;-65
2023/10/30 12:00:46;;;;;;;3.58;1.67;;;22.70;55.20;;;;;;5045226;28;20090;-66
2023/10/30 12:03:13;;;;;;;4.57;2.17;;;22.70;55.70;;;;;;5039851;28;20878;-66
2023/10/30 12:05:38;;;;;;;3.35;1.88;;;22.70;55.20;;;;;;5040458;28;20389;-66
2023/10/30 12:08:04;;;;;;;3.20;1.90;;;22.70;55.20;;;;;;5040615;28;20025;-66
2023/10/30 12:10:33;;;;;;;4.95;2.00;;;22.70;55.10;;;;;;5038984;28;20017;-66
2023/10/30 12:12:59;;;;;;;3.10;1.85;;;22.70;55.10;;;;;;5039109;28;20473;-66
2023/10/30 12:15:28;;;;;;;4.13;2.10;;;22.70;55.00;;;;;;5037042;28;20030;-66
2023/10/30 12:17:56;;;;;;;3.30;2.08;;;22.70;55.10;;;;;;5040032;28;20032;-64
2023/10/30 12:20:22;;;;;;;3.17;1.80;;;22.70;55.10;;;;;;5040183;28;20025;-66
2023/10/30 12:22:48;;;;;;;4.15;2.00;;;22.80;55.10;;;;;;5037131;28;20083;-66
2023/10/30 12:25:17;;;;;;;5.78;2.20;;;22.80;55.10;;;;;;5038220;28;20507;-67
2023/10/30 12:27:46;;;;;;;4.53;1.95;;;22.80;55.10;;;;;;5038797;28;20458;-66
2023/10/30 12:30:13;;;;;;;3.93;2.00;;;22.80;55.00;;;;;;5036132;28;20087;-66
2023/10/30 12:32:39;;;;;;;4.45;2.20;;;22.90;55.00;;;;;;5038403;28;20028;-67
2023/10/30 12:35:14;;;;;;;3.55;1.95;;;22.80;55.00;;;;;;5039498;28;20023;-67
2023/10/30 12:37:40;;;;;;;3.92;1.80;;;22.90;55.00;;;;;;5040794;28;20385;-67